createdAt,value
2018-06-15T00:00:03.663Z,16.73
2018-06-15T00:01:03.652Z,16.76
2018-06-15T00:02:03.635Z,16.79
2018-06-15T00:03:03.613Z,16.82
2018-06-15T00:04:03.598Z,16.79
2018-06-15T00:05:03.581Z,16.79
2018-06-15T00:06:03.564Z,16.79
2018-06-15T00:07:03.549Z,16.77
2018-06-15T00:08:03.530Z,16.80
2018-06-15T00:09:03.515Z,16.79
2018-06-15T00:10:03.503Z,16.79
2018-06-15T00:11:03.482Z,16.80
2018-06-15T00:12:03.464Z,16.77
2018-06-15T00:13:03.449Z,16.74
2018-06-15T00:14:03.433Z,16.76
2018-06-15T00:15:03.416Z,16.87
2018-06-15T00:16:03.399Z,16.80
2018-06-15T00:17:03.384Z,16.83
2018-06-15T00:18:03.368Z,16.84
2018-06-15T00:19:03.350Z,16.86
2018-06-15T00:20:03.333Z,16.95
2018-06-15T00:21:03.324Z,16.87
2018-06-15T00:22:03.303Z,16.89
2018-06-15T00:23:03.285Z,16.87
2018-06-15T00:24:03.267Z,16.89
2018-06-15T00:25:03.255Z,16.92
2018-06-15T00:26:03.236Z,16.87
2018-06-15T00:27:03.222Z,16.95
2018-06-15T00:28:03.207Z,16.83
2018-06-15T00:29:03.185Z,16.83
2018-06-15T00:30:03.172Z,16.89
2018-06-15T00:31:03.152Z,16.84
2018-06-15T00:32:03.139Z,16.84
2018-06-15T00:33:03.120Z,16.94
2018-06-15T00:34:03.103Z,16.86
2018-06-15T00:35:03.105Z,16.95
2018-06-15T00:36:03.086Z,16.84
2018-06-15T00:37:03.060Z,16.92
2018-06-15T00:38:03.069Z,16.94
2018-06-15T00:39:03.050Z,16.91
2018-06-15T00:40:03.023Z,16.84
2018-06-15T00:41:03.004Z,16.84
2018-06-15T00:42:03.008Z,16.87
2018-06-15T00:43:02.957Z,16.84
2018-06-15T00:44:02.939Z,16.86
2018-06-15T00:45:02.921Z,16.84
2018-06-15T00:46:02.936Z,16.86
2018-06-15T00:47:02.896Z,16.87
2018-06-15T00:48:02.889Z,16.84
2018-06-15T00:49:02.898Z,16.94
2018-06-15T00:50:02.857Z,16.87
2018-06-15T00:51:02.849Z,16.84
2018-06-15T00:52:02.805Z,16.91
2018-06-15T00:53:02.798Z,16.87
2018-06-15T00:54:02.796Z,16.84
2018-06-15T00:55:02.804Z,16.87
2018-06-15T00:56:02.771Z,16.91
2018-06-15T00:57:02.748Z,16.79
2018-06-15T00:58:02.765Z,16.73
2018-06-15T00:59:02.707Z,16.77
2018-06-15T01:00:02.700Z,16.74
2018-06-15T01:01:02.681Z,16.77
2018-06-15T01:02:02.659Z,16.77
2018-06-15T01:03:02.653Z,16.77
2018-06-15T01:04:02.636Z,16.74
2018-06-15T01:05:03.477Z,16.76
2018-06-15T01:06:02.589Z,16.82
2018-06-15T01:07:02.605Z,16.79
2018-06-15T01:08:02.556Z,16.80
2018-06-15T01:09:02.581Z,16.74
2018-06-15T01:10:02.544Z,16.77
2018-06-15T01:11:02.502Z,16.79
2018-06-15T01:12:02.518Z,16.77
2018-06-15T01:13:02.503Z,16.73
2018-06-15T01:14:02.466Z,16.74
2018-06-15T01:15:02.482Z,16.77
2018-06-15T01:16:02.448Z,16.73
2018-06-15T01:17:02.414Z,16.79
2018-06-15T01:18:02.388Z,16.77
2018-06-15T01:19:02.403Z,16.80
2018-06-15T01:20:02.400Z,16.69
2018-06-15T01:21:02.349Z,16.74
2018-06-15T01:22:02.338Z,16.76
2018-06-15T01:23:02.319Z,16.74
2018-06-15T01:24:02.309Z,16.77
2018-06-15T01:25:02.318Z,16.74
2018-06-15T01:26:02.269Z,16.76
2018-06-15T01:27:02.245Z,16.72
2018-06-15T01:28:02.229Z,16.73
2018-06-15T01:29:02.213Z,16.65
2018-06-15T01:30:02.212Z,16.64
2018-06-15T01:31:02.219Z,16.68
2018-06-15T01:32:02.162Z,16.62
2018-06-15T01:33:02.176Z,16.65
2018-06-15T01:34:02.124Z,16.65
2018-06-15T01:35:02.128Z,16.58
2018-06-15T01:36:02.085Z,16.59
2018-06-15T01:37:02.096Z,16.57
2018-06-15T01:38:02.073Z,16.57
2018-06-15T01:39:02.055Z,16.64
2018-06-15T01:40:02.073Z,16.55
2018-06-15T01:41:02.039Z,16.54
2018-06-15T01:42:01.995Z,16.50
2018-06-15T01:43:02.005Z,16.57
2018-06-15T01:44:01.996Z,16.44
2018-06-15T01:45:01.949Z,16.40
2018-06-15T01:46:01.918Z,16.46
2018-06-15T01:47:01.905Z,16.47
2018-06-15T01:48:01.884Z,16.43
2018-06-15T01:49:01.869Z,16.41
2018-06-15T01:50:01.856Z,16.43
2018-06-15T01:51:01.836Z,16.44
2018-06-15T01:52:01.821Z,16.37
2018-06-15T01:53:01.802Z,16.40
2018-06-15T01:54:01.787Z,16.41
2018-06-15T01:55:01.772Z,16.32
2018-06-15T01:56:01.755Z,16.26
2018-06-15T01:57:01.743Z,16.34
2018-06-15T01:58:01.721Z,16.32
2018-06-15T01:59:01.705Z,16.29
2018-06-15T02:00:01.687Z,16.29
2018-06-15T02:01:01.678Z,16.26
2018-06-15T02:02:01.654Z,16.25
2018-06-15T02:03:01.660Z,16.21
2018-06-15T02:04:01.621Z,16.18
2018-06-15T02:05:01.608Z,16.18
2018-06-15T02:06:01.639Z,16.18
2018-06-15T02:07:01.570Z,16.21
2018-06-15T02:08:01.554Z,16.16
2018-06-15T02:09:01.537Z,16.17
2018-06-15T02:10:01.521Z,16.06
2018-06-15T02:11:01.503Z,16.12
2018-06-15T02:12:01.486Z,16.09
2018-06-15T02:13:01.471Z,16.10
2018-06-15T02:14:01.454Z,16.03
2018-06-15T02:15:01.438Z,15.96
2018-06-15T02:16:01.421Z,15.99
2018-06-15T02:17:01.404Z,15.99
2018-06-15T02:18:01.409Z,15.99
2018-06-15T02:19:01.373Z,15.98
2018-06-15T02:20:01.356Z,15.99
2018-06-15T02:21:01.337Z,15.98
2018-06-15T02:22:01.322Z,15.90
2018-06-15T02:23:01.304Z,15.88
2018-06-15T02:24:01.286Z,15.90
2018-06-15T02:25:01.268Z,15.84
2018-06-15T02:26:01.256Z,15.91
2018-06-15T02:27:01.239Z,15.88
2018-06-15T02:28:01.221Z,15.88
2018-06-15T02:29:01.205Z,15.81
2018-06-15T02:30:01.188Z,15.81
2018-06-15T02:31:01.175Z,15.78
2018-06-15T02:32:01.163Z,15.81
2018-06-15T02:33:01.140Z,15.76
2018-06-15T02:34:01.122Z,15.70
2018-06-15T02:35:01.103Z,15.70
2018-06-15T02:36:01.094Z,15.65
2018-06-15T02:37:01.071Z,15.66
2018-06-15T02:38:01.052Z,15.66
2018-06-15T02:39:01.055Z,15.59
2018-06-15T02:40:01.018Z,15.65
2018-06-15T02:41:01.006Z,15.66
2018-06-15T02:42:00.996Z,15.52
2018-06-15T02:43:00.969Z,15.52
2018-06-15T02:44:00.950Z,15.54
2018-06-15T02:45:00.935Z,15.63
2018-06-15T02:46:00.919Z,15.62
2018-06-15T02:47:00.904Z,15.59
2018-06-15T02:48:00.885Z,15.65
2018-06-15T02:49:00.867Z,15.63
2018-06-15T02:50:00.851Z,15.66
2018-06-15T02:51:00.836Z,15.63
2018-06-15T02:52:00.821Z,15.70
2018-06-15T02:53:00.798Z,15.69
2018-06-15T02:54:00.782Z,15.83
2018-06-15T02:55:00.772Z,15.76
2018-06-15T02:56:00.750Z,15.90
2018-06-15T02:57:00.731Z,15.87
2018-06-15T02:58:00.715Z,15.83
2018-06-15T02:59:00.719Z,15.91
2018-06-15T03:00:00.696Z,15.90
2018-06-15T03:01:00.690Z,15.94
2018-06-15T03:02:00.656Z,15.98
2018-06-15T03:03:00.631Z,15.96
2018-06-15T03:04:00.615Z,16.05
2018-06-15T03:05:00.599Z,16.02
2018-06-15T03:06:00.590Z,16.06
2018-06-15T03:07:00.564Z,16.06
2018-06-15T03:08:00.548Z,16.08
2018-06-15T03:09:00.530Z,16.08
2018-06-15T03:10:00.513Z,16.06
2018-06-15T03:11:00.497Z,16.08
2018-06-15T03:12:00.485Z,16.03
2018-06-15T03:13:00.465Z,16.13
2018-06-15T03:14:00.448Z,16.08
2018-06-15T03:15:00.431Z,16.13
2018-06-15T03:16:00.447Z,16.17
2018-06-15T03:17:00.433Z,16.21
2018-06-15T03:18:00.380Z,16.17
2018-06-15T03:19:00.364Z,16.18
2018-06-15T03:20:00.345Z,16.21
2018-06-15T03:21:00.328Z,16.24
2018-06-15T03:22:00.324Z,16.22
2018-06-15T03:23:00.315Z,16.21
2018-06-15T03:24:00.279Z,16.22
2018-06-15T03:25:00.287Z,16.26
2018-06-15T03:26:00.245Z,16.29
2018-06-15T03:27:00.231Z,16.31
2018-06-15T03:28:00.214Z,16.25
2018-06-15T03:29:00.198Z,16.39
2018-06-15T03:30:00.200Z,16.26
2018-06-15T03:31:00.165Z,16.37
2018-06-15T03:32:00.145Z,16.40
2018-06-15T03:33:00.130Z,16.41
2018-06-15T03:34:00.119Z,16.41
2018-06-15T03:35:00.098Z,16.36
2018-06-15T03:36:00.081Z,16.34
2018-06-15T03:37:00.063Z,16.32
2018-06-15T03:38:00.047Z,16.39
2018-06-15T03:39:00.033Z,16.39
2018-06-15T03:40:00.015Z,16.40
2018-06-15T03:40:59.996Z,16.36
2018-06-15T03:41:59.981Z,16.37
2018-06-15T03:42:59.962Z,16.40
2018-06-15T03:43:59.944Z,16.40
2018-06-15T03:44:59.928Z,16.41
2018-06-15T03:45:59.912Z,16.47
2018-06-15T03:46:59.895Z,16.43
2018-06-15T03:47:59.877Z,16.40
2018-06-15T03:48:59.864Z,16.44
2018-06-15T03:49:59.848Z,16.49
2018-06-15T03:50:59.828Z,16.50
2018-06-15T03:51:59.815Z,16.43
2018-06-15T03:52:59.795Z,16.54
2018-06-15T03:53:59.781Z,16.51
2018-06-15T03:54:59.765Z,16.47
2018-06-15T03:55:59.802Z,16.54
2018-06-15T03:56:59.732Z,16.51
2018-06-15T03:57:59.712Z,16.58
2018-06-15T03:58:59.698Z,16.47
2018-06-15T03:59:59.679Z,16.54
2018-06-15T04:00:59.662Z,16.46
2018-06-15T04:01:59.648Z,16.58
2018-06-15T04:02:59.631Z,16.57
2018-06-15T04:03:59.614Z,16.57
2018-06-15T04:04:59.596Z,16.59
2018-06-15T04:05:59.579Z,16.58
2018-06-15T04:06:59.564Z,16.51
2018-06-15T04:07:59.568Z,16.54
2018-06-15T04:08:59.539Z,16.57
2018-06-15T04:09:59.616Z,16.54
2018-06-15T04:10:59.502Z,16.58
2018-06-15T04:11:59.529Z,16.55
2018-06-15T04:12:59.509Z,16.54
2018-06-15T04:13:59.447Z,16.59
2018-06-15T04:14:59.493Z,16.59
2018-06-15T04:15:59.416Z,16.54
2018-06-15T04:16:59.396Z,16.61
2018-06-15T04:17:59.387Z,16.62
2018-06-15T04:18:59.400Z,16.66
2018-06-15T04:19:59.348Z,16.66
2018-06-15T04:20:59.333Z,16.68
2018-06-15T04:21:59.316Z,16.65
2018-06-15T04:22:59.302Z,16.74
2018-06-15T04:23:59.281Z,16.64
2018-06-15T04:24:59.265Z,16.68
2018-06-15T04:25:59.257Z,16.68
2018-06-15T04:26:59.286Z,16.69
2018-06-15T04:27:59.215Z,16.66
2018-06-15T04:28:59.201Z,16.66
2018-06-15T04:29:59.185Z,16.74
2018-06-15T04:30:59.167Z,16.73
2018-06-15T04:31:59.165Z,16.74
2018-06-15T04:32:59.133Z,16.79
2018-06-15T04:33:59.119Z,16.82
2018-06-15T04:34:59.100Z,16.82
2018-06-15T04:35:59.086Z,16.76
2018-06-15T04:36:59.075Z,16.74
2018-06-15T04:37:59.051Z,16.87
2018-06-15T04:38:59.043Z,16.74
2018-06-15T04:39:59.020Z,16.89
2018-06-15T04:40:59.003Z,16.84
2018-06-15T04:41:58.984Z,16.92
2018-06-15T04:42:58.977Z,16.86
2018-06-15T04:43:58.952Z,16.89
2018-06-15T04:44:58.935Z,16.86
2018-06-15T04:45:58.930Z,16.87
2018-06-15T04:46:58.920Z,16.86
2018-06-15T04:47:58.931Z,16.89
2018-06-15T04:48:58.867Z,16.83
2018-06-15T04:49:58.852Z,16.91
2018-06-15T04:50:58.839Z,17.02
2018-06-15T04:51:58.838Z,16.94
2018-06-15T04:52:58.801Z,17.01
2018-06-15T04:53:58.786Z,16.98
2018-06-15T04:54:58.771Z,16.92
2018-06-15T04:55:58.754Z,16.95
2018-06-15T04:56:58.737Z,16.99
2018-06-15T04:57:58.722Z,17.07
2018-06-15T04:58:58.705Z,16.98
2018-06-15T04:59:58.689Z,17.07
2018-06-15T05:00:58.673Z,17.04
2018-06-15T05:01:58.708Z,17.04
2018-06-15T05:02:58.695Z,17.12
2018-06-15T05:03:58.626Z,17.05
2018-06-15T05:04:58.636Z,17.07
2018-06-15T05:05:58.625Z,17.04
2018-06-15T05:06:58.575Z,17.07
2018-06-15T05:07:58.608Z,17.07
2018-06-15T05:08:58.541Z,17.05
2018-06-15T05:09:58.529Z,17.05
2018-06-15T05:10:58.509Z,17.05
2018-06-15T05:11:58.516Z,17.07
2018-06-15T05:12:58.476Z,17.09
2018-06-15T05:13:58.458Z,17.12
2018-06-15T05:14:58.442Z,17.12
2018-06-15T05:15:58.429Z,17.05
2018-06-15T05:16:58.413Z,17.12
2018-06-15T05:17:58.395Z,17.14
2018-06-15T05:18:58.383Z,17.17
2018-06-15T05:19:58.372Z,17.20
2018-06-15T05:20:58.345Z,17.14
2018-06-15T05:21:58.329Z,17.22
2018-06-15T05:22:58.312Z,17.34
2018-06-15T05:23:58.295Z,17.32
2018-06-15T05:24:58.281Z,17.32
2018-06-15T05:25:58.265Z,17.34
2018-06-15T05:26:58.324Z,17.37
2018-06-15T05:27:58.292Z,17.37
2018-06-15T05:28:58.216Z,17.39
2018-06-15T05:29:58.200Z,17.31
2018-06-15T05:30:58.185Z,17.39
2018-06-15T05:31:58.169Z,17.44
2018-06-15T05:32:58.147Z,17.37
2018-06-15T05:33:58.132Z,17.42
2018-06-15T05:34:58.123Z,17.41
2018-06-15T05:35:58.103Z,17.41
2018-06-15T05:36:58.085Z,17.49
2018-06-15T05:37:58.088Z,17.50
2018-06-15T05:38:58.054Z,17.50
2018-06-15T05:39:58.037Z,17.54
2018-06-15T05:40:58.020Z,17.60
2018-06-15T05:41:58.004Z,17.54
2018-06-15T05:42:57.986Z,17.47
2018-06-15T05:43:57.977Z,17.54
2018-06-15T05:44:57.955Z,17.59
2018-06-15T05:45:57.941Z,17.57
2018-06-15T05:46:57.947Z,17.68
2018-06-15T05:47:57.906Z,17.66
2018-06-15T05:48:57.890Z,17.56
2018-06-15T05:49:57.910Z,17.60
2018-06-15T05:50:57.858Z,17.66
2018-06-15T05:51:57.842Z,17.63
2018-06-15T05:52:57.828Z,17.49
2018-06-15T05:53:57.810Z,17.52
2018-06-15T05:54:57.799Z,17.44
2018-06-15T05:55:57.779Z,17.53
2018-06-15T05:56:57.770Z,17.52
2018-06-15T05:57:57.765Z,17.53
2018-06-15T05:58:57.730Z,17.50
2018-06-15T05:59:57.713Z,17.49
2018-06-15T06:00:57.696Z,17.49
2018-06-15T06:01:57.691Z,17.50
2018-06-15T06:02:57.671Z,17.57
2018-06-15T06:03:57.729Z,17.56
2018-06-15T06:04:57.639Z,17.56
2018-06-15T06:05:57.621Z,17.56
2018-06-15T06:06:57.600Z,17.71
2018-06-15T06:07:57.586Z,17.71
2018-06-15T06:08:57.568Z,17.68
2018-06-15T06:09:57.552Z,17.71
2018-06-15T06:10:57.537Z,17.72
2018-06-15T06:11:57.520Z,17.75
2018-06-15T06:12:57.508Z,17.75
2018-06-15T06:13:57.490Z,17.84
2018-06-15T06:14:57.471Z,17.84
2018-06-15T06:15:57.493Z,17.90
2018-06-15T06:16:57.443Z,17.93
2018-06-15T06:17:57.422Z,17.95
2018-06-15T06:18:57.413Z,17.98
2018-06-15T06:19:57.416Z,17.94
2018-06-15T06:20:57.374Z,17.93
2018-06-15T06:21:57.360Z,17.94
2018-06-15T06:22:57.354Z,17.94
2018-06-15T06:23:57.329Z,17.87
2018-06-15T06:24:57.312Z,18.00
2018-06-15T06:25:57.303Z,18.02
2018-06-15T06:26:57.281Z,18.00
2018-06-15T06:27:57.263Z,17.98
2018-06-15T06:28:57.248Z,17.98
2018-06-15T06:29:57.233Z,18.09
2018-06-15T06:30:57.216Z,18.09
2018-06-15T06:31:57.199Z,18.11
2018-06-15T06:32:57.189Z,18.09
2018-06-15T06:33:57.170Z,18.23
2018-06-15T06:34:57.158Z,18.24
2018-06-15T06:35:57.137Z,18.31
2018-06-15T06:36:57.126Z,18.36
2018-06-15T06:37:57.123Z,18.37
2018-06-15T06:38:57.089Z,18.37
2018-06-15T06:39:57.073Z,18.36
2018-06-15T06:40:57.057Z,18.39
2018-06-15T06:41:57.046Z,18.45
2018-06-15T06:42:57.059Z,18.34
2018-06-15T06:43:57.025Z,18.39
2018-06-15T06:44:56.994Z,18.43
2018-06-15T06:45:56.991Z,18.36
2018-06-15T06:46:56.964Z,18.39
2018-06-15T06:47:56.952Z,18.45
2018-06-15T06:48:56.935Z,18.43
2018-06-15T06:49:56.916Z,18.41
2018-06-15T06:50:56.901Z,18.45
2018-06-15T06:51:56.892Z,18.45
2018-06-15T06:52:56.868Z,18.48
2018-06-15T06:53:56.852Z,18.39
2018-06-15T06:54:56.838Z,18.45
2018-06-15T06:55:56.823Z,18.37
2018-06-15T06:56:56.806Z,18.36
2018-06-15T06:57:56.793Z,18.48
2018-06-15T06:58:56.774Z,18.42
2018-06-15T06:59:56.760Z,18.42
2018-06-15T07:00:56.743Z,18.39
2018-06-15T07:01:56.767Z,18.46
2018-06-15T07:02:56.712Z,18.45
2018-06-15T07:03:56.696Z,18.42
2018-06-15T07:04:56.685Z,18.43
2018-06-15T07:05:56.679Z,18.39
2018-06-15T07:06:56.652Z,18.45
2018-06-15T07:07:56.634Z,18.48
2018-06-15T07:08:56.623Z,18.60
2018-06-15T07:09:56.610Z,18.60
2018-06-15T07:10:56.589Z,18.60
2018-06-15T07:11:56.570Z,18.52
2018-06-15T07:12:56.555Z,18.57
2018-06-15T07:13:56.543Z,18.64
2018-06-15T07:14:56.525Z,18.60
2018-06-15T07:15:56.534Z,18.67
2018-06-15T07:16:56.493Z,18.64
2018-06-15T07:17:56.478Z,18.61
2018-06-15T07:18:56.467Z,18.58
2018-06-15T07:19:56.530Z,18.58
2018-06-15T07:20:56.430Z,18.64
2018-06-15T07:21:56.414Z,18.67
2018-06-15T07:22:56.399Z,18.60
2018-06-15T07:23:56.383Z,18.63
2018-06-15T07:24:56.404Z,18.67
2018-06-15T07:25:56.354Z,18.60
2018-06-15T07:26:56.338Z,18.55
2018-06-15T07:27:56.324Z,18.61
2018-06-15T07:28:56.307Z,18.57
2018-06-15T07:29:56.292Z,18.52
2018-06-15T07:30:56.274Z,18.46
2018-06-15T07:31:56.273Z,18.49
2018-06-15T07:32:56.245Z,18.43
2018-06-15T07:33:56.246Z,18.51
2018-06-15T07:34:56.213Z,18.45
2018-06-15T07:35:56.197Z,18.48
2018-06-15T07:36:56.182Z,18.45
2018-06-15T07:37:56.166Z,18.49
2018-06-15T07:38:56.153Z,18.42
2018-06-15T07:39:56.136Z,18.46
2018-06-15T07:40:56.120Z,18.41
2018-06-15T07:41:56.104Z,18.58
2018-06-15T07:42:56.087Z,18.64
2018-06-15T07:43:56.074Z,18.61
2018-06-15T07:44:56.060Z,18.63
2018-06-15T07:45:56.050Z,18.71
2018-06-15T07:46:56.027Z,18.76
2018-06-15T07:47:56.012Z,18.78
2018-06-15T07:48:55.999Z,18.81
2018-06-15T07:49:55.979Z,18.86
2018-06-15T07:50:55.965Z,18.94
2018-06-15T07:51:55.948Z,18.92
2018-06-15T07:52:55.934Z,18.94
2018-06-15T07:53:55.920Z,19.00
2018-06-15T07:54:55.912Z,19.04
2018-06-15T07:55:55.888Z,19.05
2018-06-15T07:56:55.875Z,19.07
2018-06-15T07:57:55.855Z,19.09
2018-06-15T07:58:55.862Z,19.00
2018-06-15T07:59:55.830Z,19.04
2018-06-15T08:00:55.813Z,18.96
2018-06-15T08:01:55.799Z,18.91
2018-06-15T08:02:55.777Z,18.91
2018-06-15T08:03:55.769Z,18.96
2018-06-15T08:04:55.747Z,18.91
2018-06-15T08:05:55.734Z,18.96
2018-06-15T08:06:55.720Z,18.86
2018-06-15T08:07:55.700Z,18.83
2018-06-15T08:08:55.693Z,18.92
2018-06-15T08:09:55.709Z,18.88
2018-06-15T08:10:55.657Z,18.94
2018-06-15T08:11:55.638Z,18.96
2018-06-15T08:12:55.621Z,18.97
2018-06-15T08:13:55.608Z,19.00
2018-06-15T08:14:55.590Z,19.07
2018-06-15T08:15:55.624Z,19.07
2018-06-15T08:16:55.562Z,19.07
2018-06-15T08:17:55.550Z,19.05
2018-06-15T08:18:55.529Z,19.07
2018-06-15T08:19:55.513Z,19.05
2018-06-15T08:20:55.497Z,19.12
2018-06-15T08:21:55.482Z,19.15
2018-06-15T08:22:55.469Z,19.11
2018-06-15T08:23:55.449Z,19.20
2018-06-15T08:24:55.439Z,19.12
2018-06-15T08:25:55.421Z,19.17
2018-06-15T08:26:55.406Z,19.11
2018-06-15T08:27:55.390Z,19.04
2018-06-15T08:28:55.377Z,19.19
2018-06-15T08:29:55.359Z,19.04
2018-06-15T08:30:55.341Z,19.05
2018-06-15T08:31:55.327Z,19.15
2018-06-15T08:32:55.312Z,19.07
2018-06-15T08:33:55.297Z,19.16
2018-06-15T08:34:55.282Z,19.09
2018-06-15T08:35:55.264Z,19.11
2018-06-15T08:36:55.252Z,19.16
2018-06-15T08:37:55.232Z,19.09
2018-06-15T08:38:55.219Z,19.09
2018-06-15T08:39:55.203Z,19.12
2018-06-15T08:40:55.187Z,19.15
2018-06-15T08:41:55.173Z,19.20
2018-06-15T08:42:55.161Z,19.17
2018-06-15T08:43:55.141Z,19.16
2018-06-15T08:44:55.127Z,19.24
2018-06-15T08:45:55.113Z,19.26
2018-06-15T08:46:55.095Z,19.38
2018-06-15T08:47:55.080Z,19.52
2018-06-15T08:48:55.065Z,19.53
2018-06-15T08:49:55.049Z,19.48
2018-06-15T08:50:55.036Z,19.63
2018-06-15T08:51:55.021Z,19.67
2018-06-15T08:52:55.004Z,19.67
2018-06-15T08:53:54.992Z,19.66
2018-06-15T08:54:55.045Z,19.67
2018-06-15T08:55:54.955Z,19.66
2018-06-15T08:56:54.942Z,19.63
2018-06-15T08:57:54.927Z,19.66
2018-06-15T08:58:54.913Z,19.71
2018-06-15T08:59:54.896Z,19.70
2018-06-15T09:00:54.881Z,19.72
2018-06-15T09:01:54.888Z,19.77
2018-06-15T09:02:54.851Z,19.78
2018-06-15T09:03:54.834Z,19.75
2018-06-15T09:04:54.823Z,19.82
2018-06-15T09:05:54.811Z,19.78
2018-06-15T09:06:54.787Z,19.77
2018-06-15T09:07:54.773Z,19.79
2018-06-15T09:08:54.759Z,19.79
2018-06-15T09:09:54.744Z,19.90
2018-06-15T09:10:54.728Z,19.94
2018-06-15T09:11:54.715Z,19.93
2018-06-15T09:12:54.698Z,19.92
2018-06-15T09:13:54.683Z,19.97
2018-06-15T09:14:54.675Z,19.96
2018-06-15T09:15:54.653Z,19.96
2018-06-15T09:16:54.640Z,19.92
2018-06-15T09:17:54.622Z,20.00
2018-06-15T09:18:54.607Z,20.02
2018-06-15T09:19:54.591Z,19.93
2018-06-15T09:20:54.578Z,19.92
2018-06-15T09:21:54.564Z,19.82
2018-06-15T09:22:54.547Z,19.85
2018-06-15T09:23:54.534Z,19.92
2018-06-15T09:24:54.517Z,19.94
2018-06-15T09:25:54.510Z,19.94
2018-06-15T09:26:54.489Z,19.96
2018-06-15T09:27:54.471Z,19.94
2018-06-15T09:28:54.459Z,19.96
2018-06-15T09:29:54.443Z,20.03
2018-06-15T09:30:54.428Z,20.00
2018-06-15T09:31:54.412Z,20.10
2018-06-15T09:32:54.402Z,20.19
2018-06-15T09:33:54.385Z,20.24
2018-06-15T09:34:54.367Z,20.37
2018-06-15T09:35:54.352Z,20.48
2018-06-15T09:36:54.337Z,20.59
2018-06-15T09:37:54.321Z,20.64
2018-06-15T09:38:54.315Z,20.82
2018-06-15T09:39:54.293Z,20.92
2018-06-15T09:40:54.288Z,20.95
2018-06-15T09:41:54.273Z,20.93
2018-06-15T09:42:54.251Z,21.13
2018-06-15T09:43:54.232Z,21.13
2018-06-15T09:44:54.220Z,21.23
2018-06-15T09:45:54.205Z,21.38
2018-06-15T09:46:54.190Z,21.35
2018-06-15T09:47:54.177Z,21.38
2018-06-15T09:48:54.159Z,21.32
2018-06-15T09:49:54.176Z,21.30
2018-06-15T09:50:54.132Z,21.26
2018-06-15T09:51:54.124Z,21.35
2018-06-15T09:52:54.128Z,21.38
2018-06-15T09:53:54.115Z,21.43
2018-06-15T09:54:54.075Z,21.40
2018-06-15T09:55:54.065Z,21.35
2018-06-15T09:56:54.092Z,21.47
2018-06-15T09:57:54.082Z,21.47
2018-06-15T09:58:54.017Z,21.45
2018-06-15T09:59:54.001Z,21.45
2018-06-15T10:00:54.049Z,21.47
2018-06-15T10:01:53.976Z,21.53
2018-06-15T10:02:53.958Z,21.66
2018-06-15T10:03:53.942Z,21.56
2018-06-15T10:04:53.929Z,21.60
2018-06-15T10:05:53.922Z,21.60
2018-06-15T10:06:53.903Z,21.56
2018-06-15T10:07:53.886Z,21.47
2018-06-15T10:08:53.872Z,21.29
2018-06-15T10:09:53.897Z,21.30
2018-06-15T10:10:53.846Z,21.25
2018-06-15T10:11:53.869Z,21.29
2018-06-15T10:12:53.814Z,21.33
2018-06-15T10:13:53.799Z,21.32
2018-06-15T10:14:53.788Z,21.35
2018-06-15T10:15:53.770Z,21.38
2018-06-15T10:16:53.758Z,21.28
2018-06-15T10:17:53.743Z,21.26
2018-06-15T10:18:53.727Z,21.28
2018-06-15T10:19:53.714Z,21.33
2018-06-15T10:20:53.699Z,21.40
2018-06-15T10:21:53.690Z,21.44
2018-06-15T10:22:53.680Z,21.41
2018-06-15T10:23:53.656Z,21.38
2018-06-15T10:24:53.643Z,21.40
2018-06-15T10:25:53.628Z,21.44
2018-06-15T10:26:53.614Z,21.45
2018-06-15T10:27:53.599Z,21.62
2018-06-15T10:28:53.584Z,21.62
2018-06-15T10:29:53.581Z,21.77
2018-06-15T10:30:53.560Z,21.84
2018-06-15T10:31:53.549Z,21.85
2018-06-15T10:32:53.578Z,22.06
2018-06-15T10:33:53.514Z,21.99
2018-06-15T10:34:53.497Z,22.16
2018-06-15T10:35:53.483Z,22.23
2018-06-15T10:36:53.470Z,22.49
2018-06-15T10:37:53.455Z,22.43
2018-06-15T10:38:53.443Z,22.53
2018-06-15T10:39:53.476Z,22.76
2018-06-15T10:40:53.411Z,22.80
2018-06-15T10:41:53.399Z,22.76
2018-06-15T10:42:53.385Z,22.93
2018-06-15T10:43:53.373Z,23.01
2018-06-15T10:44:53.356Z,23.01
2018-06-15T10:45:53.373Z,23.13
2018-06-15T10:46:53.327Z,23.32
2018-06-15T10:47:53.360Z,23.33
2018-06-15T10:48:53.310Z,23.48
2018-06-15T10:49:53.316Z,23.76
2018-06-15T10:50:53.273Z,24.00
2018-06-15T10:51:53.258Z,24.32
2018-06-15T10:52:53.247Z,24.59
2018-06-15T10:53:53.233Z,24.86
2018-06-15T10:54:53.219Z,25.16
2018-06-15T10:55:53.203Z,25.44
2018-06-15T10:56:53.190Z,25.89
2018-06-15T10:57:53.176Z,26.29
2018-06-15T10:58:53.164Z,26.68
2018-06-15T10:59:53.149Z,26.91
2018-06-15T11:00:53.141Z,27.11
2018-06-15T11:01:53.122Z,27.48
2018-06-15T11:02:53.110Z,27.40
2018-06-15T11:03:53.097Z,27.38
2018-06-15T11:04:53.081Z,27.81
2018-06-15T11:05:53.069Z,27.98
2018-06-15T11:06:53.055Z,27.83
2018-06-15T11:07:53.041Z,28.23
2018-06-15T11:08:53.029Z,27.93
2018-06-15T11:09:53.122Z,27.64
2018-06-15T11:10:53.007Z,27.34
2018-06-15T11:11:53.009Z,27.88
2018-06-15T11:12:52.981Z,28.20
2018-06-15T11:13:52.971Z,28.13
2018-06-15T11:14:52.962Z,28.45
2018-06-15T11:15:52.951Z,28.60
2018-06-15T11:16:52.938Z,28.77
2018-06-15T11:17:52.930Z,28.64
2018-06-15T11:18:52.922Z,28.52
2018-06-15T11:19:52.919Z,28.28
2018-06-15T11:20:52.904Z,28.25
2018-06-15T11:21:52.896Z,28.41
2018-06-15T11:22:52.889Z,28.37
2018-06-15T11:23:52.878Z,28.82
2018-06-15T11:24:52.872Z,28.77
2018-06-15T11:25:52.865Z,28.82
2018-06-15T11:26:52.859Z,29.03
2018-06-15T11:27:52.852Z,29.25
2018-06-15T11:28:52.847Z,29.47
2018-06-15T11:29:52.841Z,29.74
2018-06-15T11:30:52.843Z,30.20
2018-06-15T11:31:52.830Z,29.68
2018-06-15T11:32:52.827Z,30.05
2018-06-15T11:33:52.822Z,30.38
2018-06-15T11:34:52.816Z,30.71
2018-06-15T11:35:52.810Z,30.88
2018-06-15T11:36:52.807Z,31.23
2018-06-15T11:37:52.805Z,31.29
2018-06-15T11:38:52.805Z,31.04
2018-06-15T11:39:52.860Z,29.74
2018-06-15T11:40:52.853Z,30.26
2018-06-15T11:41:52.814Z,30.29
2018-06-15T11:42:52.832Z,29.87
2018-06-15T11:43:52.784Z,30.08
2018-06-15T11:44:52.828Z,30.31
2018-06-15T11:45:52.779Z,30.51
2018-06-15T11:46:52.777Z,30.16
2018-06-15T11:47:52.773Z,30.08
2018-06-15T11:48:52.770Z,29.99
2018-06-15T11:49:52.790Z,30.24
2018-06-15T11:50:52.794Z,30.35
2018-06-15T11:51:52.804Z,30.52
2018-06-15T11:52:52.760Z,30.69
2018-06-15T11:53:52.761Z,30.48
2018-06-15T11:54:52.808Z,30.55
2018-06-15T11:55:52.756Z,30.49
2018-06-15T11:56:52.753Z,30.38
2018-06-15T11:57:52.753Z,30.43
2018-06-15T11:58:52.753Z,30.35
2018-06-15T11:59:52.817Z,30.58
2018-06-15T12:00:52.803Z,30.54
2018-06-15T12:01:52.809Z,30.31
2018-06-15T12:02:52.749Z,30.06
2018-06-15T12:03:52.743Z,29.79
2018-06-15T12:04:52.746Z,29.24
2018-06-15T12:05:52.742Z,28.90
2018-06-15T12:06:52.759Z,28.15
2018-06-15T12:07:52.775Z,27.78
2018-06-15T12:08:52.840Z,27.53
2018-06-15T12:09:52.822Z,27.34
2018-06-15T12:10:52.860Z,27.57
2018-06-15T12:11:52.740Z,27.28
2018-06-15T12:12:52.727Z,27.20
2018-06-15T12:13:52.739Z,26.73
2018-06-15T12:14:52.718Z,26.71
2018-06-15T12:15:52.783Z,26.97
2018-06-15T12:16:52.708Z,26.92
2018-06-15T12:17:52.704Z,27.15
2018-06-15T12:18:52.702Z,27.28
2018-06-15T12:19:52.718Z,27.35
2018-06-15T12:20:52.713Z,27.55
2018-06-15T12:21:52.699Z,27.75
2018-06-15T12:22:52.708Z,27.82
2018-06-15T12:23:52.716Z,27.71
2018-06-15T12:24:52.673Z,27.10
2018-06-15T12:25:52.672Z,26.60
2018-06-15T12:26:52.673Z,26.36
2018-06-15T12:27:53.238Z,26.18
2018-06-15T12:28:52.654Z,26.04
2018-06-15T12:29:52.650Z,25.98
2018-06-15T12:30:52.666Z,25.88
2018-06-15T12:31:54.853Z,25.83
2018-06-15T12:32:52.631Z,25.81
2018-06-15T12:33:53.264Z,25.78
2018-06-15T12:34:52.621Z,25.85
2018-06-15T12:35:53.254Z,25.71
2018-06-15T12:36:52.607Z,25.73
2018-06-15T12:37:52.596Z,25.89
2018-06-15T12:38:52.591Z,25.78
2018-06-15T12:39:52.584Z,25.77
2018-06-15T12:40:52.575Z,25.71
2018-06-15T12:41:52.570Z,25.56
2018-06-15T12:42:52.568Z,25.49
2018-06-15T12:43:52.552Z,25.51
2018-06-15T12:44:52.718Z,25.51
2018-06-15T12:45:52.608Z,25.58
2018-06-15T12:46:52.527Z,25.78
2018-06-15T12:47:52.518Z,26.23
2018-06-15T12:48:52.508Z,26.30
2018-06-15T12:49:52.501Z,26.29
2018-06-15T12:50:52.494Z,26.45
2018-06-15T12:51:52.490Z,26.70